Time;durP1;ratioP1;P1;durP2;ratioP2;P2;SDS_P1;SDS_P2;PMS_P1;PMS_P2;Temp;Humidity;BMP_temperature;BMP_pressure;BME280_temperature;BME280_humidity;BME280_pressure;Samples;Min_cycle;Max_cycle;Signal;HPM_P1;HPM_P2
2023/05/11 00:05:41;;;;;;;1.92;1.55;;;14.20;88.90;;;;;;10908778;32;20007;-74
2023/05/11 00:11:43;;;;;;;1.80;1.70;;;14.10;89.00;;;;;;10908502;32;20038;-73
2023/05/11 00:17:45;;;;;;;1.77;1.23;;;14.20;89.10;;;;;;10905122;32;20020;-73
2023/05/11 00:23:47;;;;;;;1.25;0.90;;;14.20;89.10;;;;;;10906299;32;20043;-75
2023/05/11 00:29:49;;;;;;;1.95;1.40;;;14.20;89.10;;;;;;10908398;32;20015;-74
2023/05/11 00:35:51;;;;;;;1.10;0.98;;;14.20;89.00;;;;;;10906967;32;20311;-74
2023/05/11 00:41:53;;;;;;;1.05;1.00;;;14.20;89.20;;;;;;10907852;32;20046;-74
2023/05/11 00:47:56;;;;;;;2.85;1.42;;;14.20;89.10;;;;;;10906244;32;20345;-73
2023/05/11 00:53:59;;;;;;;1.20;1.10;;;14.30;89.00;;;;;;10906276;32;20338;-73
2023/05/11 01:00:02;;;;;;;2.28;1.17;;;14.30;89.10;;;;;;10905268;32;20019;-73
2023/05/11 01:06:17;;;;;;;0.98;0.88;;;14.30;89.20;;;;;;10904224;32;20042;-72
2023/05/11 01:12:47;;;;;;;0.80;0.77;;;14.30;89.30;;;;;;10906875;32;20180;-71
2023/05/11 01:19:02;;;;;;;1.75;1.20;;;14.30;89.30;;;;;;10905446;32;20007;-73
2023/05/11 01:25:45;;;;;;;1.20;1.00;;;14.30;89.20;;;;;;10901966;32;20031;-71
2023/05/11 01:31:55;;;;;;;0.68;0.65;;;14.30;89.10;;;;;;10906450;32;20270;-73
2023/05/11 01:38:00;;;;;;;2.67;1.17;;;14.20;89.30;;;;;;10904609;32;20054;-72
2023/05/11 01:44:06;;;;;;;1.65;1.25;;;14.20;89.30;;;;;;10903626;32;20427;-74
2023/05/11 01:50:09;;;;;;;1.58;0.85;;;14.20;89.30;;;;;;10902365;32;20023;-73
2023/05/11 01:56:14;;;;;;;0.70;0.60;;;14.30;89.40;;;;;;10904639;32;20037;-71
2023/05/11 02:02:18;;;;;;;0.98;0.90;;;14.30;89.40;;;;;;10905768;32;20318;-72
2023/05/11 02:08:21;;;;;;;0.70;0.70;;;14.30;89.20;;;;;;10905352;32;20074;-72
2023/05/11 02:14:27;;;;;;;0.55;0.55;;;14.30;89.30;;;;;;10904048;32;20028;-73
2023/05/11 02:20:30;;;;;;;0.70;0.70;;;14.30;89.20;;;;;;10904106;32;20397;-73
2023/05/11 02:26:33;;;;;;;0.95;0.70;;;14.30;89.20;;;;;;10904859;32;20019;-73
2023/05/11 02:32:41;;;;;;;1.70;1.02;;;14.30;89.20;;;;;;10904478;32;20015;-72
2023/05/11 02:38:46;;;;;;;1.60;0.70;;;14.30;89.30;;;;;;10903419;32;20039;-74
2023/05/11 02:45:04;;;;;;;1.37;0.80;;;14.20;89.30;;;;;;10901901;32;20023;-73
2023/05/11 02:51:09;;;;;;;1.85;1.37;;;14.30;89.10;;;;;;10902938;32;20054;-72
2023/05/11 02:57:12;;;;;;;1.00;0.88;;;14.30;89.20;;;;;;10903867;32;20011;-72
2023/05/11 03:03:14;;;;;;;1.75;0.95;;;14.30;89.30;;;;;;10902780;32;20015;-73
2023/05/11 03:09:16;;;;;;;1.35;0.85;;;14.30;89.30;;;;;;10906356;32;20315;-72
2023/05/11 03:15:21;;;;;;;1.37;0.82;;;14.30;89.20;;;;;;10891869;32;20058;-72
2023/05/11 03:21:25;;;;;;;0.47;0.47;;;14.30;89.10;;;;;;10909601;32;20046;-73
2023/05/11 03:27:28;;;;;;;1.25;0.62;;;14.20;89.00;;;;;;10909475;32;20015;-73
2023/05/11 03:33:32;;;;;;;2.37;0.98;;;14.20;89.10;;;;;;10909108;32;20081;-73
2023/05/11 03:39:36;;;;;;;1.27;1.00;;;14.20;89.00;;;;;;10908859;32;20435;-72
2023/05/11 03:45:42;;;;;;;2.35;1.10;;;14.10;89.00;;;;;;10907264;32;20050;-74
2023/05/11 03:51:46;;;;;;;0.57;0.40;;;14.00;89.00;;;;;;10908849;32;20353;-73
2023/05/11 03:57:48;;;;;;;1.23;0.52;;;14.00;89.00;;;;;;10909564;32;20019;-74
2023/05/11 04:03:52;;;;;;;0.95;0.50;;;14.00;89.20;;;;;;10905405;32;20046;-72
2023/05/11 04:09:54;;;;;;;0.60;0.43;;;14.10;89.20;;;;;;10909682;32;20016;-72
2023/05/11 04:15:56;;;;;;;2.30;1.30;;;14.10;89.10;;;;;;10907761;32;20019;-71
2023/05/11 04:21:58;;;;;;;0.70;0.70;;;14.10;89.10;;;;;;10908150;32;20028;-71
2023/05/11 04:28:00;;;;;;;0.62;0.60;;;14.10;89.10;;;;;;10907343;32;20023;-72
2023/05/11 04:34:04;;;;;;;1.75;0.85;;;14.10;89.10;;;;;;10908188;32;20034;-72
2023/05/11 04:40:08;;;;;;;0.60;0.37;;;14.10;89.00;;;;;;10906964;32;20032;-72
2023/05/11 04:46:11;;;;;;;0.88;0.50;;;14.10;89.00;;;;;;10903720;32;20054;-73
2023/05/11 04:52:30;;;;;;;0.30;0.30;;;14.10;88.90;;;;;;10901368;32;20027;-72
2023/05/11 04:58:32;;;;;;;0.43;0.30;;;14.20;88.90;;;;;;10902377;32;20054;-73
2023/05/11 05:04:34;;;;;;;0.37;0.37;;;14.20;88.90;;;;;;10905360;32;20023;-73
2023/05/11 05:10:36;;;;;;;2.05;0.50;;;14.20;88.90;;;;;;10904057;32;20028;-72
2023/05/11 05:16:38;;;;;;;0.32;0.30;;;14.20;88.90;;;;;;10903574;32;20027;-72
2023/05/11 05:22:42;;;;;;;0.40;0.40;;;14.20;88.70;;;;;;10904969;32;20059;-73
2023/05/11 05:28:55;;;;;;;0.20;0.20;;;14.10;88.70;;;;;;10906263;32;20019;-71
2023/05/11 05:34:57;;;;;;;0.52;0.40;;;14.10;88.60;;;;;;10904877;32;20023;-70
2023/05/11 05:40:59;;;;;;;0.17;0.17;;;14.00;88.40;;;;;;10903808;32;20394;-72
2023/05/11 05:47:02;;;;;;;0.20;0.10;;;14.00;88.60;;;;;;10906391;32;20027;-72
2023/05/11 05:53:06;;;;;;;0.17;0.17;;;14.00;88.50;;;;;;10901928;32;20081;-73
2023/05/11 05:59:09;;;;;;;0.10;0.10;;;14.10;88.50;;;;;;10904168;32;20398;-73
2023/05/11 06:05:12;;;;;;;0.20;0.20;;;14.10;88.40;;;;;;10902890;32;20023;-73
2023/05/11 06:11:14;;;;;;;0.20;0.20;;;14.10;88.40;;;;;;10904590;32;20023;-72
2023/05/11 06:17:16;;;;;;;0.30;0.30;;;14.10;88.50;;;;;;10903019;32;20031;-75
2023/05/11 06:23:21;;;;;;;0.57;0.50;;;14.00;88.60;;;;;;10903694;32;20050;-73
2023/05/11 06:29:24;;;;;;;1.12;0.60;;;14.00;88.70;;;;;;10900235;32;20019;-73
2023/05/11 06:35:26;;;;;;;2.97;1.60;;;14.00;88.70;;;;;;10900767;32;20073;-72
2023/05/11 06:41:29;;;;;;;1.05;0.80;;;14.00;88.80;;;;;;10899875;32;20023;-75
2023/05/11 06:47:31;;;;;;;0.68;0.65;;;14.00;88.80;;;;;;10909486;32;20054;-74
2023/05/11 06:53:34;;;;;;;0.50;0.50;;;14.00;88.80;;;;;;10908723;32;20062;-72
2023/05/11 06:59:36;;;;;;;0.93;0.73;;;13.90;88.80;;;;;;10907738;32;20023;-75
2023/05/11 07:05:39;;;;;;;0.28;0.28;;;14.00;88.80;;;;;;10910520;32;20027;-73
2023/05/11 07:11:43;;;;;;;1.75;0.62;;;13.90;88.90;;;;;;10910279;32;20393;-73
2023/05/11 07:17:46;;;;;;;0.98;0.70;;;14.00;89.00;;;;;;10910343;32;20023;-74
2023/05/11 07:23:48;;;;;;;1.65;1.08;;;14.00;88.90;;;;;;10909783;32;20027;-74
2023/05/11 07:29:51;;;;;;;1.98;1.55;;;14.00;88.90;;;;;;10909448;32;20038;-73
2023/05/11 07:35:53;;;;;;;3.37;2.30;;;13.90;89.10;;;;;;10909044;32;20054;-76
2023/05/11 07:41:55;;;;;;;2.42;1.52;;;14.00;89.20;;;;;;10907951;32;20069;-74
2023/05/11 07:47:57;;;;;;;1.48;1.17;;;14.00;89.10;;;;;;10907632;32;20035;-75
2023/05/11 07:53:59;;;;;;;2.25;1.12;;;14.00;89.00;;;;;;10392069;32;16919814;-75
2023/05/11 08:00:09;;;;;;;1.05;0.68;;;14.00;89.10;;;;;;10905521;32;20074;-74
2023/05/11 08:06:13;;;;;;;1.75;0.80;;;14.10;89.20;;;;;;10905615;32;20037;-73
2023/05/11 08:12:16;;;;;;;3.62;2.53;;;14.10;89.20;;;;;;10907985;32;20047;-78
2023/05/11 08:18:19;;;;;;;2.37;1.58;;;14.10;89.20;;;;;;10908832;32;20077;-77
2023/05/11 08:24:20;;;;;;;1.12;0.80;;;14.00;89.20;;;;;;10903491;32;20023;-73
2023/05/11 08:30:22;;;;;;;0.77;0.60;;;14.00;89.20;;;;;;10906878;32;20019;-73
2023/05/11 08:36:29;;;;;;;0.90;0.80;;;13.90;89.30;;;;;;10905157;32;20042;-73
2023/05/11 08:42:37;;;;;;;1.05;0.73;;;13.90;89.40;;;;;;10907864;32;20069;-74
2023/05/11 08:48:39;;;;;;;0.57;0.50;;;13.90;89.50;;;;;;10907121;32;20411;-75
2023/05/11 08:54:41;;;;;;;1.15;0.80;;;13.90;89.50;;;;;;10905092;32;20043;-74
2023/05/11 09:00:44;;;;;;;0.68;0.68;;;13.80;89.30;;;;;;10904959;32;20385;-73
2023/05/11 09:06:51;;;;;;;0.80;0.73;;;13.90;89.50;;;;;;10904881;32;20023;-74
2023/05/11 09:12:53;;;;;;;1.70;0.95;;;13.90;89.60;;;;;;10904350;32;20054;-74
2023/05/11 09:19:23;;;;;;;0.50;0.50;;;14.00;89.50;;;;;;10905099;32;20424;-75
2023/05/11 09:25:26;;;;;;;1.62;1.02;;;14.00;89.40;;;;;;10879690;32;20058;-73
2023/05/11 09:31:37;;;;;;;0.62;0.62;;;14.00;89.50;;;;;;10902494;32;20318;-74
2023/05/11 09:37:39;;;;;;;1.40;0.98;;;14.00;89.50;;;;;;10893263;32;20045;-74
2023/05/11 09:43:41;;;;;;;1.73;1.27;;;14.00;89.60;;;;;;10905039;32;20046;-74
2023/05/11 09:49:52;;;;;;;2.40;1.60;;;14.00;89.60;;;;;;10903547;32;20046;-74
2023/05/11 09:55:55;;;;;;;5.75;1.10;;;14.00;89.50;;;;;;10905595;32;20007;-74
2023/05/11 10:02:14;;;;;;;1.10;1.00;;;14.00;89.70;;;;;;10904182;32;20045;-76
2023/05/11 10:08:30;;;;;;;1.17;1.05;;;14.00;89.70;;;;;;10891401;32;20038;-74
2023/05/11 10:14:33;;;;;;;1.83;1.05;;;14.00;89.70;;;;;;10891863;32;20046;-72
2023/05/11 10:20:41;;;;;;;3.20;1.45;;;14.00;89.70;;;;;;10889849;32;20024;-75
2023/05/11 10:26:44;;;;;;;3.03;1.07;;;14.00;89.80;;;;;;10902171;32;20024;-73
2023/05/11 10:32:46;;;;;;;0.60;0.60;;;14.00;89.60;;;;;;10903269;32;20023;-74
2023/05/11 10:38:48;;;;;;;0.65;0.60;;;14.00;89.80;;;;;;10904806;32;20038;-74
2023/05/11 10:45:23;;;;;;;1.95;1.48;;;14.00;89.80;;;;;;10889990;32;20042;-75
2023/05/11 10:51:43;;;;;;;1.15;0.93;;;14.00;89.70;;;;;;10930638;32;20028;-76
2023/05/11 10:58:13;;;;;;;1.75;1.05;;;14.00;89.90;;;;;;10915132;32;20020;-75
2023/05/11 11:04:19;;;;;;;1.02;0.68;;;14.00;90.00;;;;;;10901182;32;20027;-76
2023/05/11 11:10:51;;;;;;;1.12;1.00;;;14.00;90.00;;;;;;10902349;32;20193;-74
2023/05/11 11:17:15;;;;;;;1.40;0.75;;;14.10;89.80;;;;;;10896468;32;20039;-74
2023/05/11 11:23:40;;;;;;;1.80;1.00;;;14.00;89.70;;;;;;10937966;32;20322;-74
2023/05/11 11:30:21;;;;;;;0.50;0.50;;;14.00;89.90;;;;;;10941609;32;20046;-72
2023/05/11 11:37:09;;;;;;;0.52;0.50;;;13.90;89.80;;;;;;10946454;32;20050;-73
2023/05/11 11:43:18;;;;;;;2.08;1.08;;;14.00;89.80;;;;;;10946481;32;20027;-72
2023/05/11 11:49:26;;;;;;;0.43;0.43;;;14.00;89.80;;;;;;10934670;32;20019;-74
2023/05/11 11:55:48;;;;;;;6.55;1.95;;;14.10;89.70;;;;;;10942014;32;20326;-73
2023/05/11 12:01:55;;;;;;;3.80;2.03;;;14.10;89.70;;;;;;10947114;32;20041;-77
2023/05/11 12:08:03;;;;;;;1.60;1.27;;;14.00;89.80;;;;;;10947032;32;20337;-73
2023/05/11 12:14:08;;;;;;;;;;;14.10;89.80;;;;;;10947010;32;20065;-74
2023/05/11 12:21:03;;;;;;;2.33;1.08;;;14.20;89.90;;;;;;10941786;32;19930;-73
2023/05/11 12:27:05;;;;;;;1.58;1.10;;;14.20;89.80;;;;;;10792605;33;20036;-73
2023/05/11 12:33:07;;;;;;;1.33;0.80;;;14.20;89.80;;;;;;10792979;33;20159;-72
2023/05/11 12:39:34;;;;;;;1.42;1.15;;;14.20;89.80;;;;;;10791694;33;20028;-74
2023/05/11 12:45:37;;;;;;;0.98;0.80;;;14.20;89.90;;;;;;10791421;33;20024;-74
2023/05/11 12:51:46;;;;;;;1.00;0.90;;;14.20;89.90;;;;;;10791454;33;20051;-73
2023/05/11 12:57:49;;;;;;;1.30;0.80;;;14.30;89.90;;;;;;10835590;32;20018;-74
2023/05/11 13:03:51;;;;;;;1.00;1.00;;;14.20;89.90;;;;;;10944776;32;20314;-72
2023/05/11 13:09:58;;;;;;;0.90;0.77;;;14.20;89.90;;;;;;10943649;32;20313;-74
2023/05/11 13:16:04;;;;;;;1.10;1.00;;;14.20;90.00;;;;;;10944281;32;20042;-73
2023/05/11 13:22:27;;;;;;;3.42;1.67;;;14.20;89.90;;;;;;10918485;32;20057;-74
2023/05/11 13:28:29;;;;;;;3.25;0.98;;;14.30;89.80;;;;;;10942846;32;20195;-72
2023/05/11 13:34:31;;;;;;;1.67;1.20;;;14.30;89.90;;;;;;10943174;32;20015;-72
2023/05/11 13:40:34;;;;;;;1.33;1.10;;;14.30;89.80;;;;;;10942345;32;20057;-74
2023/05/11 13:46:36;;;;;;;0.80;0.80;;;14.30;89.80;;;;;;10942901;32;20014;-74
2023/05/11 13:52:39;;;;;;;0.90;0.90;;;14.30;89.70;;;;;;10939955;32;20323;-75
2023/05/11 13:58:42;;;;;;;0.85;0.70;;;14.30;89.80;;;;;;10928973;32;20046;-74
2023/05/11 14:04:44;;;;;;;2.85;0.90;;;14.40;89.70;;;;;;10902010;32;20035;-74
2023/05/11 14:10:50;;;;;;;1.40;1.05;;;14.40;89.60;;;;;;10898956;32;20019;-75
2023/05/11 14:16:55;;;;;;;0.82;0.80;;;14.50;89.60;;;;;;10878210;32;20047;-75
2023/05/11 14:22:58;;;;;;;1.15;1.00;;;14.50;89.60;;;;;;10903836;32;20015;-75
2023/05/11 14:29:00;;;;;;;5.20;3.15;;;14.50;89.50;;;;;;10904848;32;20042;-75
2023/05/11 14:35:02;;;;;;;8.05;2.67;;;14.50;89.50;;;;;;10904142;32;20051;-74
2023/05/11 14:41:06;;;;;;;0.95;0.85;;;14.50;89.40;;;;;;10904387;32;20333;-74
2023/05/11 14:47:08;;;;;;;1.65;1.45;;;14.40;89.40;;;;;;10890686;32;20019;-74
2023/05/11 14:53:11;;;;;;;3.25;1.35;;;14.40;89.30;;;;;;10903114;32;20117;-74
2023/05/11 14:59:13;;;;;;;2.40;1.62;;;14.40;89.30;;;;;;10905130;32;20045;-75
2023/05/11 15:05:41;;;;;;;2.22;1.08;;;14.40;89.20;;;;;;10905124;32;20027;-75
2023/05/11 15:11:43;;;;;;;2.00;1.50;;;14.30;89.10;;;;;;10910329;32;20044;-74
2023/05/11 15:17:53;;;;;;;1.25;1.00;;;14.30;89.00;;;;;;10911104;32;20024;-75
2023/05/11 15:23:56;;;;;;;2.70;1.62;;;14.30;88.90;;;;;;10910189;32;20023;-74
2023/05/11 15:30:06;;;;;;;2.97;1.33;;;14.20;88.90;;;;;;10909179;32;20015;-74
2023/05/11 15:36:13;;;;;;;2.42;1.42;;;14.20;88.90;;;;;;10909943;32;20007;-75
2023/05/11 15:42:15;;;;;;;1.52;1.15;;;14.20;88.90;;;;;;10910278;32;20050;-75
2023/05/11 15:48:19;;;;;;;2.15;1.35;;;14.30;89.00;;;;;;10910005;32;20019;-74
2023/05/11 15:54:23;;;;;;;0.85;0.80;;;14.40;89.00;;;;;;10910238;27;20097;-75
2023/05/11 16:00:25;;;;;;;0.85;0.80;;;14.40;89.00;;;;;;10908073;32;20054;-74
2023/05/11 16:06:27;;;;;;;1.62;1.30;;;14.50;88.90;;;;;;10908242;32;20041;-74
2023/05/11 16:12:29;;;;;;;1.98;1.37;;;14.50;88.90;;;;;;10909077;32;20405;-74
2023/05/11 16:18:31;;;;;;;2.45;1.92;;;14.50;88.90;;;;;;10907794;32;20034;-73
2023/05/11 16:24:33;;;;;;;5.15;2.03;;;14.60;88.90;;;;;;10907806;32;20295;-73
2023/05/11 16:30:35;;;;;;;2.45;1.42;;;14.60;88.90;;;;;;10908553;32;20016;-72
2023/05/11 16:36:49;;;;;;;1.42;1.27;;;14.60;89.10;;;;;;10908316;32;20385;-74
2023/05/11 16:42:52;;;;;;;2.65;1.52;;;14.50;89.10;;;;;;10908081;32;20012;-74
2023/05/11 16:48:54;;;;;;;3.83;1.80;;;14.50;89.20;;;;;;10901234;32;20032;-73
2023/05/11 16:54:56;;;;;;;1.10;1.00;;;14.40;89.30;;;;;;10940255;32;20019;-75
2023/05/11 17:01:22;;;;;;;2.05;1.20;;;14.30;89.40;;;;;;10943896;32;20022;-73
2023/05/11 17:07:25;;;;;;;1.08;0.70;;;14.20;89.30;;;;;;10942714;32;20024;-74
2023/05/11 17:13:29;;;;;;;2.40;1.23;;;14.20;89.50;;;;;;10941765;32;20389;-75
2023/05/11 17:20:14;;;;;;;1.10;0.80;;;14.20;89.60;;;;;;10943449;32;20023;-75
2023/05/11 17:26:17;;;;;;;1.95;1.27;;;14.20;89.60;;;;;;10940150;32;20056;-74
2023/05/11 17:32:19;;;;;;;1.70;0.65;;;14.10;89.70;;;;;;10929122;32;20401;-74
2023/05/11 17:38:24;;;;;;;1.40;1.02;;;14.10;89.80;;;;;;10938557;32;20027;-74
2023/05/11 17:44:27;;;;;;;1.75;1.20;;;14.10;89.70;;;;;;10943631;32;20038;-74
2023/05/11 17:50:29;;;;;;;1.20;0.90;;;14.10;89.70;;;;;;10943274;32;20053;-74
2023/05/11 17:56:31;;;;;;;0.82;0.70;;;14.10;89.70;;;;;;10943475;32;20019;-73
2023/05/11 18:02:35;;;;;;;1.77;1.30;;;14.10;89.70;;;;;;10941852;32;20027;-74
2023/05/11 18:08:39;;;;;;;1.70;1.37;;;14.00;89.70;;;;;;10941858;32;20038;-74
2023/05/11 18:14:45;;;;;;;0.98;0.70;;;14.10;89.70;;;;;;10929058;32;20031;-73
2023/05/11 18:20:48;;;;;;;1.70;0.80;;;14.00;89.70;;;;;;10928549;32;20046;-74
2023/05/11 18:26:50;;;;;;;0.98;0.90;;;14.00;89.50;;;;;;10888792;32;20038;-74
2023/05/11 18:32:54;;;;;;;0.70;0.70;;;14.00;89.40;;;;;;10878556;32;20054;-73
2023/05/11 18:38:56;;;;;;;1.52;1.10;;;13.90;89.50;;;;;;10905964;32;20015;-74
2023/05/11 18:45:03;;;;;;;0.82;0.60;;;13.90;89.40;;;;;;10907978;32;20050;-74
2023/05/11 18:51:06;;;;;;;1.05;0.70;;;13.90;89.60;;;;;;10894843;32;20058;-73
2023/05/11 18:57:11;;;;;;;0.88;0.88;;;13.90;89.50;;;;;;10911833;32;20212;-74
2023/05/11 19:03:19;;;;;;;0.77;0.65;;;13.90;89.50;;;;;;10896020;32;20034;-74
2023/05/11 19:09:22;;;;;;;1.00;0.68;;;13.80;89.50;;;;;;10911455;32;20069;-74
2023/05/11 19:15:24;;;;;;;1.48;0.90;;;13.90;89.60;;;;;;10895921;32;20023;-73
2023/05/11 19:21:27;;;;;;;1.62;1.20;;;13.90;89.50;;;;;;10895905;32;20035;-74
2023/05/11 19:27:31;;;;;;;2.03;1.05;;;13.80;89.50;;;;;;10910695;32;20023;-73
2023/05/11 19:33:45;;;;;;;1.12;0.80;;;13.80;89.50;;;;;;10910471;32;20038;-74
2023/05/11 19:40:42;;;;;;;0.45;0.43;;;13.80;89.60;;;;;;10910254;32;20081;-73
2023/05/11 19:46:46;;;;;;;0.70;0.70;;;13.80;89.60;;;;;;10897499;32;20015;-72
2023/05/11 19:52:49;;;;;;;0.77;0.70;;;13.80;89.70;;;;;;10908385;32;20396;-73
2023/05/11 19:58:51;;;;;;;1.45;0.75;;;13.90;89.70;;;;;;10910388;32;20037;-74
2023/05/11 20:04:54;;;;;;;1.20;0.88;;;13.80;89.60;;;;;;10909453;32;20114;-72
2023/05/11 20:10:56;;;;;;;0.47;0.47;;;13.80;89.60;;;;;;10909400;32;20038;-72
2023/05/11 20:16:59;;;;;;;1.65;0.82;;;13.80;89.50;;;;;;10909267;32;20042;-73
2023/05/11 20:23:02;;;;;;;1.50;0.55;;;13.80;89.60;;;;;;10908932;32;20333;-74
2023/05/11 20:29:06;;;;;;;0.55;0.47;;;13.80;89.70;;;;;;10905560;32;20028;-74
2023/05/11 20:35:14;;;;;;;1.42;0.73;;;13.80;89.60;;;;;;10893599;32;20062;-73
2023/05/11 20:41:16;;;;;;;0.88;0.88;;;13.80;89.70;;;;;;10893112;32;20035;-73
2023/05/11 20:47:19;;;;;;;1.17;0.85;;;13.80;89.70;;;;;;10905615;32;20333;-73
2023/05/11 20:53:21;;;;;;;1.00;0.62;;;13.70;89.80;;;;;;10906914;32;20020;-74
2023/05/11 20:59:23;;;;;;;0.70;0.60;;;13.70;89.80;;;;;;10907018;32;20070;-72
2023/05/11 21:05:25;;;;;;;0.40;0.40;;;13.70;89.90;;;;;;10907169;32;20341;-74
2023/05/11 21:11:27;;;;;;;1.30;0.80;;;13.70;90.00;;;;;;10907317;32;20076;-73
2023/05/11 21:17:29;;;;;;;1.20;1.10;;;13.70;90.00;;;;;;10907036;32;20015;-73
2023/05/11 21:23:31;;;;;;;1.10;1.00;;;13.70;89.90;;;;;;10905671;32;20412;-75
2023/05/11 21:29:34;;;;;;;0.95;0.80;;;13.70;90.00;;;;;;10904312;32;20412;-72
2023/05/11 21:35:37;;;;;;;0.82;0.70;;;13.70;90.00;;;;;;10891650;32;20073;-71
2023/05/11 21:41:39;;;;;;;1.40;1.12;;;13.70;90.10;;;;;;10906229;32;20020;-71
2023/05/11 21:47:41;;;;;;;1.12;1.00;;;13.70;90.10;;;;;;10906065;32;20020;-72
2023/05/11 21:53:43;;;;;;;1.17;1.08;;;13.70;90.00;;;;;;10904873;32;20432;-72
2023/05/11 21:59:45;;;;;;;0.90;0.90;;;13.70;90.00;;;;;;10904240;32;20377;-73
2023/05/11 22:05:48;;;;;;;1.02;1.00;;;13.70;90.00;;;;;;10890231;32;20031;-73
2023/05/11 22:11:50;;;;;;;0.85;0.85;;;13.60;90.00;;;;;;10905536;32;20034;-71
2023/05/11 22:18:15;;;;;;;1.50;0.88;;;13.70;90.20;;;;;;10903490;32;20036;-71
2023/05/11 22:24:17;;;;;;;4.30;1.67;;;13.70;90.10;;;;;;10905109;32;20038;-71
2023/05/11 22:30:21;;;;;;;1.40;1.00;;;13.70;90.20;;;;;;10905111;32;20050;-74
2023/05/11 22:36:23;;;;;;;1.30;1.20;;;13.60;90.10;;;;;;10904967;32;20051;-73
2023/05/11 22:42:29;;;;;;;2.28;1.27;;;13.60;90.30;;;;;;10904806;32;20388;-73
2023/05/11 22:49:04;;;;;;;1.60;1.50;;;13.60;90.40;;;;;;10904738;32;20011;-72
2023/05/11 22:55:08;;;;;;;1.67;1.40;;;13.60;90.40;;;;;;10903472;32;20024;-74
2023/05/11 23:01:11;;;;;;;1.77;1.52;;;13.70;90.40;;;;;;10904470;32;20023;-73
2023/05/11 23:07:13;;;;;;;1.33;1.00;;;13.70;90.40;;;;;;10903245;32;20483;-72
2023/05/11 23:13:15;;;;;;;2.87;2.22;;;13.60;90.40;;;;;;10890917;32;20038;-74
2023/05/11 23:19:17;;;;;;;2.33;2.03;;;13.70;90.40;;;;;;10904268;32;20023;-75
2023/05/11 23:25:20;;;;;;;1.87;1.67;;;13.70;90.40;;;;;;10905003;32;20381;-74
2023/05/11 23:31:22;;;;;;;1.95;1.73;;;13.70;90.30;;;;;;10910187;32;20019;-74
2023/05/11 23:37:24;;;;;;;2.80;1.90;;;13.60;90.50;;;;;;10910008;32;20020;-74
2023/05/11 23:43:27;;;;;;;2.92;1.95;;;13.60;90.40;;;;;;10892406;32;20035;-73
2023/05/11 23:49:29;;;;;;;2.35;1.58;;;13.60;90.40;;;;;;10910164;32;20057;-72
2023/05/11 23:55:32;;;;;;;3.33;2.25;;;13.50;90.50;;;;;;10947552;27;20031;-75
